Aeroporto :







RITROVATECI SU...

 
LOGIN :

Iscrizione | Disclaimer

   EN    FR    IT 

 









Sommario :    VFR   VFR Marginale   IFR   IFR Intensivo   IFR Molto Intensivo
Visibilità : 
Base nubi : 
>= 8 km
>= 3000ft
5 / 8 km
1000 / 3000 ft
1500m / 5 km
500 / 1000 ft
800 / 1500m
200 / 500 ft
< 800m
< 200 ft
Simboli :   Temporali  Nebbia  Neve Forte  Precipitazioni Forti  Vento > 20 kt






- Altitudine del aeroporto : 276 ft
- Codice IATA : BVB


SBBV - Boa Vista Int.

ULTIMO METAR :
  • 012000Z 18004KT 9999 BKN040 FEW045TCU BKN100 32/22 Q1010

METARs OBSOLETI :
  • 011900Z 10004KT 9999 BKN040 FEW045TCU BKN100 32/21 Q1011
  • 011800Z 07006KT 9999 BKN040 FEW045TCU BKN100 32/21 Q1012

TAF TAF SBBV
Valido dal 01 a 18 ore il 02 a 18 ore UTC


011500Z 0118/0218 09008KT 9000 SCT035 FEW045TCU TN25/0207Z TX32/0216Z
TEMPO 0118/0122 5000 TSRA BKN030 FEW040CB
BECMG 0200/0202 13004KT FEW030
BECMG 0204/0206 08005KT
BECMG 0214/0216 BKN035 FEW040TCU RMK PDU
FIR SBAZ / Sudamerica



MetMap, La meteo Aeronautica in un colpo d'occhio ! - Copyright ORBIFLY Dicembre 2007 - Disclaimer

ORBIFLY MET'MAP TEAM :

Programmazione e sviluppo : Alexandra Zaïnal
Concezione : Baudouin d'Aumeries
Aiuto per la programmazione : Marc-Olivier Méhu
Supporto tecnico e logistico : Manuel Goepfert
Aiuto per la traduzione : Arnaldo La Scala

Contatto : metmap@orbifly.com




FONTI E CREDITI :

   NOAA